sensor_id;sensor_type;location;lat;lon;timestamp;P1;durP1;ratioP1;P2;durP2;ratioP2
59207;SDS011;44977;53.132;6.408;2022-08-25T13:23:59;5.28;;;2.75;;
59207;SDS011;44977;53.132;6.408;2022-08-25T13:34:08;6.75;;;2.90;;
59207;SDS011;44977;53.132;6.408;2022-08-25T13:39:19;5.97;;;2.95;;
59207;SDS011;44977;53.132;6.408;2022-08-25T13:44:22;6.18;;;3.20;;
59207;SDS011;44977;53.132;6.408;2022-08-25T13:49:25;9.48;;;3.03;;
59207;SDS011;44977;53.132;6.408;2022-08-25T13:54:27;7.15;;;2.88;;
59207;SDS011;44977;53.132;6.408;2022-08-25T13:59:34;6.47;;;3.07;;
59207;SDS011;44977;53.132;6.408;2022-08-25T14:09:45;5.57;;;2.63;;
59207;SDS011;44977;53.132;6.408;2022-08-25T14:14:56;7.43;;;2.92;;
59207;SDS011;44977;53.132;6.408;2022-08-25T14:20:19;6.45;;;2.90;;
59207;SDS011;44977;53.132;6.408;2022-08-25T14:25:26;5.63;;;2.80;;
59207;SDS011;44977;53.132;6.408;2022-08-25T14:30:32;7.53;;;3.22;;
59207;SDS011;44977;53.132;6.408;2022-08-25T14:35:36;5.28;;;2.70;;
59207;SDS011;44977;53.132;6.408;2022-08-25T14:40:37;5.22;;;2.55;;
59207;SDS011;44977;53.132;6.408;2022-08-25T14:45:39;4.85;;;2.67;;
59207;SDS011;44977;53.132;6.408;2022-08-25T14:50:41;5.68;;;2.95;;
59207;SDS011;44977;53.132;6.408;2022-08-25T14:55:43;6.63;;;2.80;;
59207;SDS011;44977;53.132;6.408;2022-08-25T15:00:43;4.47;;;2.97;;
59207;SDS011;44977;53.132;6.408;2022-08-25T15:05:46;6.47;;;2.88;;
59207;SDS011;44977;53.132;6.408;2022-08-25T15:10:46;5.10;;;2.65;;
59207;SDS011;44977;53.132;6.408;2022-08-25T15:15:47;5.55;;;3.30;;
59207;SDS011;44977;53.132;6.408;2022-08-25T15:20:48;6.35;;;3.03;;
59207;SDS011;44977;53.132;6.408;2022-08-25T15:25:49;5.50;;;2.90;;
59207;SDS011;44977;53.132;6.408;2022-08-25T15:30:53;6.28;;;3.20;;
59207;SDS011;44977;53.132;6.408;2022-08-25T15:35:53;5.78;;;2.90;;
59207;SDS011;44977;53.132;6.408;2022-08-25T15:40:54;7.47;;;3.17;;
59207;SDS011;44977;53.132;6.408;2022-08-25T15:45:55;6.38;;;3.40;;
59207;SDS011;44977;53.132;6.408;2022-08-25T15:50:56;6.88;;;3.35;;
59207;SDS011;44977;53.132;6.408;2022-08-25T15:55:59;6.03;;;3.13;;
59207;SDS011;44977;53.132;6.408;2022-08-25T16:01:00;7.85;;;3.60;;
59207;SDS011;44977;53.132;6.408;2022-08-25T16:06:01;8.57;;;3.83;;
59207;SDS011;44977;53.132;6.408;2022-08-25T16:11:03;7.75;;;4.15;;
59207;SDS011;44977;53.132;6.408;2022-08-25T16:16:05;6.97;;;3.38;;
59207;SDS011;44977;53.132;6.408;2022-08-25T16:21:10;9.15;;;3.70;;
59207;SDS011;44977;53.132;6.408;2022-08-25T16:26:12;7.43;;;4.22;;
59207;SDS011;44977;53.132;6.408;2022-08-25T16:31:13;7.25;;;3.58;;
59207;SDS011;44977;53.132;6.408;2022-08-25T16:36:16;8.18;;;5.57;;
59207;SDS011;44977;53.132;6.408;2022-08-25T16:46:21;11.07;;;10.00;;
59207;SDS011;44977;53.132;6.408;2022-08-25T16:51:22;9.90;;;5.70;;
59207;SDS011;44977;53.132;6.408;2022-08-25T16:56:23;7.07;;;3.55;;
59207;SDS011;44977;53.132;6.408;2022-08-25T17:01:24;6.90;;;3.33;;
59207;SDS011;44977;53.132;6.408;2022-08-25T17:06:28;5.78;;;2.92;;
59207;SDS011;44977;53.132;6.408;2022-08-25T17:11:34;6.32;;;2.63;;
59207;SDS011;44977;53.132;6.408;2022-08-25T17:16:42;4.85;;;3.00;;
59207;SDS011;44977;53.132;6.408;2022-08-25T17:21:43;6.43;;;3.17;;
59207;SDS011;44977;53.132;6.408;2022-08-25T17:26:45;5.80;;;3.00;;
59207;SDS011;44977;53.132;6.408;2022-08-25T17:31:48;5.85;;;2.85;;
59207;SDS011;44977;53.132;6.408;2022-08-25T17:36:50;6.15;;;2.72;;
59207;SDS011;44977;53.132;6.408;2022-08-25T17:41:52;7.95;;;3.40;;
59207;SDS011;44977;53.132;6.408;2022-08-25T17:46:53;6.80;;;3.20;;
59207;SDS011;44977;53.132;6.408;2022-08-25T17:51:54;6.57;;;3.72;;
59207;SDS011;44977;53.132;6.408;2022-08-25T17:56:54;7.93;;;3.75;;
59207;SDS011;44977;53.132;6.408;2022-08-25T18:01:55;7.18;;;3.40;;
59207;SDS011;44977;53.132;6.408;2022-08-25T18:06:56;7.22;;;3.78;;
59207;SDS011;44977;53.132;6.408;2022-08-25T18:11:57;9.77;;;5.43;;
59207;SDS011;44977;53.132;6.408;2022-08-25T18:16:58;8.57;;;3.78;;
59207;SDS011;44977;53.132;6.408;2022-08-25T18:22:00;6.15;;;3.80;;
59207;SDS011;44977;53.132;6.408;2022-08-25T18:27:05;10.77;;;4.05;;
59207;SDS011;44977;53.132;6.408;2022-08-25T18:32:06;6.72;;;3.90;;
59207;SDS011;44977;53.132;6.408;2022-08-25T18:37:08;7.85;;;3.90;;
59207;SDS011;44977;53.132;6.408;2022-08-25T18:42:27;6.72;;;3.72;;
59207;SDS011;44977;53.132;6.408;2022-08-25T18:47:28;7.32;;;4.00;;
59207;SDS011;44977;53.132;6.408;2022-08-25T18:52:28;7.72;;;4.00;;
59207;SDS011;44977;53.132;6.408;2022-08-25T18:57:29;8.07;;;3.65;;
59207;SDS011;44977;53.132;6.408;2022-08-25T19:02:30;6.50;;;3.58;;
59207;SDS011;44977;53.132;6.408;2022-08-25T19:07:30;8.68;;;6.40;;
59207;SDS011;44977;53.132;6.408;2022-08-25T19:12:31;7.85;;;4.95;;
59207;SDS011;44977;53.132;6.408;2022-08-25T19:17:32;7.30;;;4.03;;
59207;SDS011;44977;53.132;6.408;2022-08-25T19:22:33;7.72;;;4.15;;
59207;SDS011;44977;53.132;6.408;2022-08-25T19:27:34;6.95;;;4.03;;
59207;SDS011;44977;53.132;6.408;2022-08-25T19:32:36;8.57;;;4.63;;
59207;SDS011;44977;53.132;6.408;2022-08-25T19:37:41;8.13;;;4.50;;
59207;SDS011;44977;53.132;6.408;2022-08-25T19:42:42;8.05;;;5.30;;
59207;SDS011;44977;53.132;6.408;2022-08-25T19:47:43;8.30;;;5.28;;
59207;SDS011;44977;53.132;6.408;2022-08-25T19:52:44;8.45;;;5.70;;
59207;SDS011;44977;53.132;6.408;2022-08-25T19:57:46;8.88;;;5.85;;
59207;SDS011;44977;53.132;6.408;2022-08-25T20:02:47;10.50;;;7.25;;
59207;SDS011;44977;53.132;6.408;2022-08-25T20:07:47;11.10;;;7.38;;
59207;SDS011;44977;53.132;6.408;2022-08-25T20:12:49;9.85;;;6.90;;
59207;SDS011;44977;53.132;6.408;2022-08-25T20:17:50;11.70;;;8.32;;
59207;SDS011;44977;53.132;6.408;2022-08-25T20:22:52;9.57;;;7.38;;
59207;SDS011;44977;53.132;6.408;2022-08-25T20:27:53;11.02;;;7.93;;
59207;SDS011;44977;53.132;6.408;2022-08-25T20:32:55;11.80;;;7.70;;
59207;SDS011;44977;53.132;6.408;2022-08-25T20:37:57;15.82;;;13.90;;
59207;SDS011;44977;53.132;6.408;2022-08-25T20:43:03;18.10;;;14.40;;
59207;SDS011;44977;53.132;6.408;2022-08-25T20:48:03;16.65;;;10.27;;
59207;SDS011;44977;53.132;6.408;2022-08-25T20:53:04;10.68;;;7.72;;
59207;SDS011;44977;53.132;6.408;2022-08-25T20:58:06;13.02;;;8.07;;
59207;SDS011;44977;53.132;6.408;2022-08-25T21:03:07;11.52;;;7.85;;
59207;SDS011;44977;53.132;6.408;2022-08-25T21:08:08;10.93;;;7.07;;
59207;SDS011;44977;53.132;6.408;2022-08-25T21:13:09;9.98;;;6.22;;
59207;SDS011;44977;53.132;6.408;2022-08-25T21:18:10;10.02;;;5.78;;
59207;SDS011;44977;53.132;6.408;2022-08-25T21:23:10;10.13;;;6.35;;
59207;SDS011;44977;53.132;6.408;2022-08-25T21:28:11;9.75;;;7.28;;
59207;SDS011;44977;53.132;6.408;2022-08-25T21:33:13;12.50;;;8.70;;
59207;SDS011;44977;53.132;6.408;2022-08-25T21:38:14;17.77;;;15.02;;
59207;SDS011;44977;53.132;6.408;2022-08-25T21:43:15;21.00;;;18.80;;
59207;SDS011;44977;53.132;6.408;2022-08-25T21:48:16;22.15;;;19.95;;
59207;SDS011;44977;53.132;6.408;2022-08-25T21:53:17;23.90;;;21.77;;
59207;SDS011;44977;53.132;6.408;2022-08-25T21:58:17;25.10;;;22.77;;
59207;SDS011;44977;53.132;6.408;2022-08-25T22:03:18;26.23;;;23.83;;
59207;SDS011;44977;53.132;6.408;2022-08-25T22:08:19;28.05;;;25.45;;
59207;SDS011;44977;53.132;6.408;2022-08-25T22:13:20;28.08;;;25.58;;
59207;SDS011;44977;53.132;6.408;2022-08-25T22:18:21;29.70;;;26.77;;
59207;SDS011;44977;53.132;6.408;2022-08-25T22:23:22;30.90;;;28.08;;
59207;SDS011;44977;53.132;6.408;2022-08-25T22:28:23;30.48;;;27.88;;
59207;SDS011;44977;53.132;6.408;2022-08-25T22:33:25;32.03;;;29.05;;
59207;SDS011;44977;53.132;6.408;2022-08-25T22:38:26;32.80;;;29.65;;
59207;SDS011;44977;53.132;6.408;2022-08-25T22:43:27;33.20;;;30.42;;
59207;SDS011;44977;53.132;6.408;2022-08-25T22:48:28;34.10;;;31.20;;
59207;SDS011;44977;53.132;6.408;2022-08-25T22:53:28;35.75;;;32.75;;
59207;SDS011;44977;53.132;6.408;2022-08-25T22:58:29;37.35;;;34.08;;
59207;SDS011;44977;53.132;6.408;2022-08-25T23:03:30;39.50;;;36.22;;
59207;SDS011;44977;53.132;6.408;2022-08-25T23:08:31;35.92;;;32.75;;
59207;SDS011;44977;53.132;6.408;2022-08-25T23:13:31;35.17;;;32.28;;
59207;SDS011;44977;53.132;6.408;2022-08-25T23:18:32;36.15;;;32.90;;
59207;SDS011;44977;53.132;6.408;2022-08-25T23:23:34;37.38;;;33.95;;
59207;SDS011;44977;53.132;6.408;2022-08-25T23:28:36;36.65;;;33.42;;
59207;SDS011;44977;53.132;6.408;2022-08-25T23:33:38;36.28;;;32.92;;
59207;SDS011;44977;53.132;6.408;2022-08-25T23:38:39;36.33;;;33.00;;
59207;SDS011;44977;53.132;6.408;2022-08-25T23:43:43;34.75;;;31.73;;
59207;SDS011;44977;53.132;6.408;2022-08-25T23:48:45;34.40;;;31.25;;
59207;SDS011;44977;53.132;6.408;2022-08-25T23:53:46;35.90;;;32.50;;
59207;SDS011;44977;53.132;6.408;2022-08-25T23:58:47;33.42;;;30.08;;
